createdAt,value
2022-10-17T00:01:55.349Z,71.44
2022-10-17T00:04:22.678Z,71.66
2022-10-17T00:06:49.797Z,71.80
2022-10-17T00:09:16.953Z,71.82
2022-10-17T00:11:44.347Z,71.89
2022-10-17T00:14:11.524Z,71.95
2022-10-17T00:16:39.002Z,72.00
2022-10-17T00:19:06.853Z,71.95
2022-10-17T00:21:34.163Z,72.06
2022-10-17T00:24:01.435Z,72.11
2022-10-17T00:26:31.564Z,72.14
2022-10-17T00:28:58.752Z,72.38
2022-10-17T00:31:25.836Z,72.54
2022-10-17T00:33:53.113Z,72.61
2022-10-17T00:36:22.778Z,72.76
2022-10-17T00:38:53.244Z,72.88
2022-10-17T00:41:23.818Z,72.85
2022-10-17T00:44:03.481Z,73.08
2022-10-17T00:46:35.637Z,73.16
2022-10-17T00:49:08.359Z,73.18
2022-10-17T00:51:44.885Z,73.33
2022-10-17T00:54:14.479Z,73.31
2022-10-17T00:56:41.660Z,73.15
2022-10-17T00:59:11.204Z,73.10
2022-10-17T01:01:41.260Z,73.00
2022-10-17T01:04:09.635Z,72.88
2022-10-17T01:06:38.658Z,72.87
2022-10-17T01:09:05.700Z,72.90
2022-10-17T01:11:45.399Z,72.81
2022-10-17T01:14:22.271Z,72.85
2022-10-17T01:16:55.849Z,72.76
2022-10-17T01:19:57.750Z,72.71
2022-10-17T01:22:38.337Z,72.69
2022-10-17T01:25:28.104Z,72.75
2022-10-17T01:28:07.036Z,72.75
2022-10-17T01:31:00.013Z,72.63
2022-10-17T01:33:50.739Z,72.69
2022-10-17T01:36:34.152Z,72.64
2022-10-17T01:39:20.604Z,72.46
2022-10-17T01:41:59.321Z,72.30
2022-10-17T01:44:44.668Z,72.21
2022-10-17T01:47:16.041Z,72.11
2022-10-17T01:49:49.549Z,72.04
2022-10-17T01:52:23.269Z,71.95
2022-10-17T01:55:00.391Z,72.01
2022-10-17T01:57:33.841Z,71.97
2022-10-17T02:00:03.636Z,71.98
2022-10-17T02:02:33.136Z,71.85
2022-10-17T02:05:02.481Z,71.65
2022-10-17T02:07:30.284Z,71.67
2022-10-17T02:09:57.830Z,71.67
2022-10-17T02:12:45.719Z,71.53
2022-10-17T02:15:29.102Z,71.31
2022-10-17T02:18:09.398Z,71.15
2022-10-17T02:20:57.132Z,70.77
2022-10-17T02:23:48.435Z,70.72
2022-10-17T02:26:34.000Z,70.65
2022-10-17T02:29:07.361Z,70.84
2022-10-17T02:31:40.190Z,70.76
2022-10-17T02:34:23.886Z,70.76
2022-10-17T02:36:53.965Z,70.76
2022-10-17T02:39:23.338Z,71.04
2022-10-17T02:41:52.173Z,71.17
2022-10-17T02:44:20.383Z,71.20
2022-10-17T02:46:52.212Z,71.34
2022-10-17T02:49:28.440Z,71.45
2022-10-17T02:52:05.062Z,71.72
2022-10-17T02:54:36.957Z,71.78
2022-10-17T02:57:23.288Z,71.90
2022-10-17T02:59:51.416Z,71.83
2022-10-17T03:02:18.585Z,71.94
2022-10-17T03:04:46.800Z,72.02
2022-10-17T03:07:14.082Z,72.21
2022-10-17T03:09:41.325Z,72.28
2022-10-17T03:12:08.590Z,72.32
2022-10-17T03:14:36.168Z,72.31
2022-10-17T03:17:03.629Z,72.35
2022-10-17T03:19:31.854Z,72.40
2022-10-17T03:22:03.430Z,72.47
2022-10-17T03:24:32.087Z,72.54
2022-10-17T03:27:02.211Z,72.48
2022-10-17T03:29:31.743Z,72.63
2022-10-17T03:32:04.383Z,72.90
2022-10-17T03:34:32.436Z,73.12
2022-10-17T03:36:59.568Z,73.36
2022-10-17T03:39:27.176Z,73.91
2022-10-17T03:41:54.243Z,73.80
2022-10-17T03:44:21.561Z,73.74
2022-10-17T03:46:49.185Z,73.73
2022-10-17T03:49:16.546Z,73.62
2022-10-17T03:51:44.998Z,73.59
2022-10-17T03:54:14.152Z,73.61
2022-10-17T03:56:41.492Z,73.41
2022-10-17T03:59:13.218Z,73.20
2022-10-17T04:01:41.110Z,73.22
2022-10-17T04:04:08.877Z,73.20
2022-10-17T04:06:37.432Z,73.17
2022-10-17T04:09:05.619Z,73.13
2022-10-17T04:11:34.663Z,73.10
2022-10-17T04:14:02.073Z,72.96
2022-10-17T04:16:29.578Z,72.97
2022-10-17T04:18:59.705Z,72.92
2022-10-17T04:21:29.333Z,72.96
2022-10-17T04:23:58.461Z,73.18
2022-10-17T04:26:30.734Z,73.07
2022-10-17T04:28:57.860Z,73.13
2022-10-17T04:31:24.955Z,72.93
2022-10-17T04:33:59.756Z,72.86
2022-10-17T04:36:27.677Z,72.73
2022-10-17T04:38:55.132Z,72.61
2022-10-17T04:41:22.292Z,72.49
2022-10-17T04:43:51.140Z,72.62
2022-10-17T04:46:19.070Z,72.65
2022-10-17T04:48:46.523Z,72.57
2022-10-17T04:51:15.611Z,72.50
2022-10-17T04:53:53.413Z,72.54
2022-10-17T04:56:22.605Z,72.56
2022-10-17T04:58:50.503Z,72.36
2022-10-17T05:01:19.832Z,72.35
2022-10-17T05:03:49.138Z,72.23
2022-10-17T05:06:20.689Z,72.07
2022-10-17T05:08:49.829Z,72.07
2022-10-17T05:11:22.364Z,72.12
2022-10-17T05:13:51.315Z,72.19
2022-10-17T05:16:19.490Z,72.38
2022-10-17T05:18:54.662Z,72.51
2022-10-17T05:21:23.930Z,72.50
2022-10-17T05:23:53.312Z,72.42
2022-10-17T05:26:21.434Z,72.39
2022-10-17T05:28:48.711Z,72.31
2022-10-17T05:31:16.915Z,72.30
2022-10-17T05:33:44.193Z,72.33
2022-10-17T05:36:11.788Z,72.27
2022-10-17T05:38:39.644Z,72.42
2022-10-17T05:41:07.549Z,72.56
2022-10-17T05:43:34.941Z,72.59
2022-10-17T05:46:05.972Z,72.72
2022-10-17T05:48:33.887Z,72.86
2022-10-17T05:51:04.833Z,72.98
2022-10-17T05:53:34.782Z,73.19
2022-10-17T05:56:07.335Z,73.37
2022-10-17T05:58:53.260Z,73.33
2022-10-17T06:01:08.238Z,73.11
2022-10-17T06:03:35.368Z,73.13
2022-10-17T06:06:10.239Z,73.38
2022-10-17T06:08:39.716Z,73.37
2022-10-17T06:11:10.263Z,73.35
2022-10-17T06:13:39.433Z,73.36
2022-10-17T06:16:08.855Z,73.26
2022-10-17T06:18:36.118Z,73.31
2022-10-17T06:21:05.416Z,73.29
2022-10-17T06:23:33.349Z,73.29
2022-10-17T06:26:03.935Z,73.44
2022-10-17T06:28:31.815Z,73.41
2022-10-17T06:30:58.996Z,73.53
2022-10-17T06:33:26.985Z,73.42
2022-10-17T06:35:55.412Z,73.42
2022-10-17T06:38:24.024Z,73.44
2022-10-17T06:40:54.901Z,73.24
2022-10-17T06:43:27.018Z,73.08
2022-10-17T06:48:33.791Z,72.97
2022-10-17T06:51:15.046Z,73.02
2022-10-17T06:53:49.825Z,72.73
2022-10-17T06:56:28.486Z,72.56
2022-10-17T06:59:15.095Z,72.25
2022-10-17T07:01:46.261Z,72.03
2022-10-17T07:04:13.374Z,71.98
2022-10-17T07:06:40.517Z,71.58
2022-10-17T07:09:09.956Z,71.47
2022-10-17T07:11:38.244Z,71.28
2022-10-17T07:14:05.693Z,71.11
2022-10-17T07:16:33.985Z,70.83
2022-10-17T07:19:03.111Z,70.01
2022-10-17T07:21:35.307Z,70.06
2022-10-17T07:24:02.146Z,70.17
2022-10-17T07:26:29.364Z,69.84
2022-10-17T07:28:56.598Z,69.65
2022-10-17T07:31:34.812Z,69.74
2022-10-17T07:34:02.227Z,69.09
2022-10-17T07:36:30.382Z,67.84
2022-10-17T07:38:59.252Z,67.41
2022-10-17T07:41:27.313Z,67.67
2022-10-17T07:43:55.485Z,67.60
2022-10-17T07:46:24.648Z,67.38
2022-10-17T07:48:51.873Z,67.41
2022-10-17T07:51:21.447Z,67.59
2022-10-17T07:53:49.035Z,67.46
2022-10-17T07:56:16.637Z,66.32
2022-10-17T07:58:43.745Z,64.92
2022-10-17T08:01:15.188Z,64.82
2022-10-17T08:03:43.912Z,64.62
2022-10-17T08:06:11.197Z,65.01
2022-10-17T08:08:38.510Z,63.71
2022-10-17T08:11:08.282Z,62.52
2022-10-17T08:13:36.296Z,64.01
2022-10-17T08:16:08.352Z,63.87
2022-10-17T08:18:36.222Z,64.31
2022-10-17T08:21:07.933Z,64.51
2022-10-17T08:23:36.030Z,64.26
2022-10-17T08:26:05.973Z,64.09
2022-10-17T08:28:35.403Z,64.99
2022-10-17T08:31:10.552Z,64.03
2022-10-17T08:33:38.049Z,64.63
2022-10-17T08:36:06.070Z,64.74
2022-10-17T08:38:39.391Z,65.64
2022-10-17T08:41:13.285Z,65.67
2022-10-17T08:44:10.123Z,64.04
2022-10-17T08:46:39.662Z,64.99
2022-10-17T08:49:13.436Z,65.56
2022-10-17T08:51:44.520Z,65.08
2022-10-17T08:54:18.253Z,65.46
2022-10-17T08:56:50.997Z,66.46
2022-10-17T08:59:21.378Z,65.27
2022-10-17T09:01:58.392Z,65.81
2022-10-17T09:04:47.086Z,65.25
2022-10-17T09:07:33.204Z,64.32
2022-10-17T09:10:24.951Z,64.29
2022-10-17T09:13:22.022Z,63.84
2022-10-17T09:16:08.366Z,64.78
2022-10-17T09:18:38.673Z,64.97
2022-10-17T09:21:44.801Z,63.81
2022-10-17T09:24:16.106Z,64.14
2022-10-17T09:26:45.524Z,64.22
2022-10-17T09:29:18.809Z,62.65
2022-10-17T09:31:58.825Z,63.82
2022-10-17T09:34:28.119Z,63.18
2022-10-17T09:36:59.162Z,63.08
2022-10-17T09:39:28.537Z,62.40
2022-10-17T09:41:58.489Z,62.88
2022-10-17T09:44:33.912Z,62.42
2022-10-17T09:47:23.358Z,62.72
2022-10-17T09:49:51.408Z,62.51
2022-10-17T09:52:28.444Z,62.20
2022-10-17T09:55:17.672Z,61.12
2022-10-17T09:57:54.345Z,60.45
2022-10-17T10:00:27.424Z,61.59
2022-10-17T10:03:22.925Z,62.23
2022-10-17T10:06:08.843Z,61.07
2022-10-17T10:08:39.617Z,60.82
2022-10-17T10:11:13.377Z,61.28
2022-10-17T10:13:37.448Z,61.58
2022-10-17T10:16:17.158Z,59.70
2022-10-17T10:18:46.398Z,59.97
2022-10-17T10:21:19.726Z,60.72
2022-10-17T10:24:12.149Z,60.83
2022-10-17T10:26:44.890Z,60.75
2022-10-17T10:29:29.558Z,61.39
2022-10-17T10:32:00.534Z,60.64
2022-10-17T10:34:29.028Z,60.00
2022-10-17T10:37:04.534Z,60.14
2022-10-17T10:39:37.687Z,59.50
2022-10-17T10:42:08.073Z,60.90
2022-10-17T10:44:37.278Z,60.40
2022-10-17T10:47:23.115Z,57.74
2022-10-17T10:49:52.323Z,57.84
2022-10-17T10:52:23.201Z,57.83
2022-10-17T10:55:20.060Z,57.21
2022-10-17T10:57:47.992Z,57.74
2022-10-17T11:00:21.169Z,56.15
2022-10-17T11:03:12.587Z,57.03
2022-10-17T11:05:42.992Z,56.25
2022-10-17T11:08:16.740Z,56.56
2022-10-17T11:10:50.487Z,54.85
2022-10-17T11:13:21.480Z,55.51
2022-10-17T11:15:55.096Z,55.54
2022-10-17T11:18:25.325Z,54.97
2022-10-17T11:20:58.209Z,55.65
2022-10-17T11:23:34.896Z,54.21
2022-10-17T11:26:05.384Z,55.69
2022-10-17T11:28:32.858Z,55.23
2022-10-17T11:31:07.105Z,55.39
2022-10-17T11:33:56.056Z,54.77
2022-10-17T11:36:29.758Z,54.64
2022-10-17T11:39:00.372Z,53.99
2022-10-17T11:41:31.134Z,55.27
2022-10-17T11:44:16.945Z,53.77
2022-10-17T11:46:46.038Z,53.27
2022-10-17T11:49:23.560Z,53.38
2022-10-17T11:52:18.307Z,52.91
2022-10-17T11:54:45.564Z,54.16
2022-10-17T11:57:44.136Z,52.89
2022-10-17T12:00:32.516Z,54.18
2022-10-17T12:03:06.140Z,54.85
2022-10-17T12:05:45.506Z,53.57
2022-10-17T12:08:16.366Z,53.43
2022-10-17T12:10:59.527Z,52.68
2022-10-17T12:13:33.208Z,52.31
2022-10-17T12:16:23.108Z,52.27
2022-10-17T12:18:53.913Z,52.32
2022-10-17T12:21:20.995Z,52.72
2022-10-17T12:23:53.137Z,52.34
2022-10-17T12:26:30.228Z,53.19
2022-10-17T12:28:57.637Z,53.18
2022-10-17T12:31:33.354Z,53.44
2022-10-17T12:33:57.746Z,53.46
2022-10-17T12:36:31.374Z,52.46
2022-10-17T12:39:07.772Z,52.75
2022-10-17T12:41:43.754Z,50.74
2022-10-17T12:44:21.144Z,51.08
2022-10-17T12:46:58.056Z,51.47
2022-10-17T12:49:41.255Z,51.79
2022-10-17T12:52:23.405Z,51.60
2022-10-17T12:55:12.133Z,50.24
2022-10-17T12:57:56.248Z,49.30
2022-10-17T13:00:59.589Z,50.96
2022-10-17T13:03:16.310Z,49.63
2022-10-17T13:05:47.171Z,49.11
2022-10-17T13:08:18.312Z,48.28
2022-10-17T13:10:50.266Z,48.81
2022-10-17T13:13:20.169Z,48.41
2022-10-17T13:15:52.813Z,48.30
2022-10-17T13:18:23.069Z,48.78
2022-10-17T13:21:05.978Z,48.97
2022-10-17T13:23:35.856Z,50.10
2022-10-17T13:26:19.830Z,50.00
2022-10-17T13:29:02.475Z,49.34
2022-10-17T13:31:33.354Z,50.15
2022-10-17T13:34:03.390Z,49.76
2022-10-17T13:36:31.429Z,50.50
2022-10-17T13:39:00.398Z,50.97
2022-10-17T13:41:37.199Z,50.60
2022-10-17T13:43:58.857Z,50.09
2022-10-17T13:46:38.071Z,50.28
2022-10-17T13:49:04.763Z,49.74
2022-10-17T13:51:31.820Z,49.81
2022-10-17T13:53:59.084Z,49.38
2022-10-17T13:56:28.953Z,49.68
2022-10-17T13:59:04.016Z,50.08
2022-10-17T14:01:31.471Z,49.60
2022-10-17T14:04:08.758Z,49.34
2022-10-17T14:06:29.534Z,49.67
2022-10-17T14:08:59.663Z,49.20
2022-10-17T14:11:36.344Z,49.43
2022-10-17T14:14:06.284Z,49.40
2022-10-17T14:16:38.895Z,49.20
2022-10-17T14:19:09.860Z,48.51
2022-10-17T14:21:44.165Z,47.89
2022-10-17T14:24:25.215Z,48.94
2022-10-17T14:26:55.152Z,48.71
2022-10-17T14:29:25.246Z,49.27
2022-10-17T14:32:04.523Z,48.53
2022-10-17T14:34:37.090Z,49.08
2022-10-17T14:37:33.774Z,48.99
2022-10-17T14:40:03.398Z,49.20
2022-10-17T14:42:30.489Z,49.54
2022-10-17T14:45:01.460Z,49.63
2022-10-17T14:47:43.280Z,50.01
2022-10-17T14:50:13.536Z,50.06
2022-10-17T14:52:42.567Z,49.50
2022-10-17T14:55:25.012Z,49.49
2022-10-17T14:57:52.411Z,49.69
2022-10-17T15:00:20.814Z,50.06
2022-10-17T15:02:49.034Z,50.57
2022-10-17T15:05:16.941Z,51.00
2022-10-17T15:07:44.173Z,51.52
2022-10-17T15:10:30.048Z,51.59
2022-10-17T15:13:15.827Z,51.51
2022-10-17T15:15:29.586Z,51.79
2022-10-17T15:17:56.765Z,52.57
2022-10-17T15:20:27.348Z,53.22
2022-10-17T15:22:55.209Z,53.89
2022-10-17T15:25:23.161Z,54.52
2022-10-17T15:27:50.969Z,54.89
2022-10-17T15:30:23.748Z,55.54
2022-10-17T15:32:51.342Z,56.07
2022-10-17T15:35:19.575Z,56.60
2022-10-17T15:37:46.643Z,57.05
2022-10-17T15:40:23.119Z,57.52
2022-10-17T15:42:50.369Z,57.96
2022-10-17T15:45:19.277Z,58.61
2022-10-17T15:47:56.046Z,59.00
2022-10-17T15:50:23.209Z,59.31
2022-10-17T15:52:50.640Z,59.69
2022-10-17T15:55:18.336Z,60.14
2022-10-17T15:57:46.389Z,60.59
2022-10-17T16:00:23.278Z,61.04
2022-10-17T16:02:50.817Z,61.41
2022-10-17T16:05:24.936Z,61.80
2022-10-17T16:07:52.948Z,62.19
2022-10-17T16:10:21.191Z,62.50
2022-10-17T16:12:49.523Z,62.74
2022-10-17T16:15:23.271Z,63.04
2022-10-17T16:17:51.802Z,63.29
2022-10-17T16:20:19.552Z,63.49
2022-10-17T16:22:47.825Z,63.94
2022-10-17T16:25:26.053Z,64.05
2022-10-17T16:27:55.215Z,64.18
2022-10-17T16:30:24.352Z,64.37
2022-10-17T16:32:52.303Z,64.85
2022-10-17T16:35:23.215Z,65.00
2022-10-17T16:37:50.721Z,65.26
2022-10-17T16:40:18.253Z,65.49
2022-10-17T16:42:45.473Z,65.92
2022-10-17T16:45:19.155Z,66.11
2022-10-17T16:47:46.815Z,66.21
2022-10-17T16:50:14.460Z,66.36
2022-10-17T16:52:41.677Z,66.58
2022-10-17T16:55:09.694Z,66.95
2022-10-17T16:57:37.164Z,66.96
2022-10-17T17:00:06.047Z,67.17
2022-10-17T17:02:33.856Z,67.47
2022-10-17T17:05:01.349Z,67.48
2022-10-17T17:07:29.476Z,67.70
2022-10-17T17:09:57.313Z,67.78
2022-10-17T17:12:24.462Z,67.82
2022-10-17T17:14:51.375Z,67.91
2022-10-17T17:17:30.250Z,67.98
2022-10-17T17:19:48.108Z,68.08
2022-10-17T17:22:15.096Z,68.16
2022-10-17T17:24:42.463Z,68.21
2022-10-17T17:27:12.717Z,68.09
2022-10-17T17:29:38.656Z,68.24
2022-10-17T17:32:05.924Z,68.17
2022-10-17T17:34:35.762Z,68.15
2022-10-17T17:37:03.133Z,68.20
2022-10-17T17:39:30.120Z,68.21
2022-10-17T17:41:57.436Z,68.28
2022-10-17T17:44:24.668Z,68.15
2022-10-17T17:46:51.799Z,68.38
2022-10-17T17:49:18.986Z,68.24
2022-10-17T17:51:46.266Z,68.18
2022-10-17T17:54:14.129Z,68.10
2022-10-17T17:56:41.625Z,68.11
2022-10-17T17:59:10.729Z,68.19
2022-10-17T18:01:38.541Z,68.12
2022-10-17T18:04:08.043Z,68.16
2022-10-17T18:06:36.289Z,68.18
2022-10-17T18:09:04.042Z,68.05
2022-10-17T18:11:31.354Z,68.17
2022-10-17T18:14:01.222Z,68.08
2022-10-17T18:16:30.004Z,68.29
2022-10-17T18:19:02.603Z,68.35
2022-10-17T18:21:27.340Z,68.50
2022-10-17T18:23:54.269Z,68.57
2022-10-17T18:26:21.292Z,68.72
2022-10-17T18:28:49.722Z,68.93
2022-10-17T18:31:20.704Z,68.92
2022-10-17T18:33:53.313Z,69.01
2022-10-17T18:36:21.277Z,69.03
2022-10-17T18:38:49.661Z,69.08
2022-10-17T18:41:19.573Z,69.25
2022-10-17T18:43:47.973Z,69.42
2022-10-17T18:46:22.010Z,69.49
2022-10-17T18:48:49.883Z,69.70
2022-10-17T18:51:19.557Z,69.73
2022-10-17T18:53:49.438Z,69.89
2022-10-17T18:56:17.363Z,70.07
2022-10-17T18:58:44.963Z,70.07
2022-10-17T19:01:15.915Z,70.19
2022-10-17T19:03:45.022Z,70.28
2022-10-17T19:06:14.315Z,70.18
2022-10-17T19:08:42.597Z,70.28
2022-10-17T19:11:15.304Z,70.23
2022-10-17T19:13:43.064Z,70.30
2022-10-17T19:16:13.720Z,70.31
2022-10-17T19:18:41.053Z,70.28
2022-10-17T19:21:10.390Z,70.31
2022-10-17T19:23:38.178Z,70.30
2022-10-17T19:26:07.109Z,70.32
2022-10-17T19:28:35.513Z,70.29
2022-10-17T19:31:03.160Z,70.26
2022-10-17T19:33:31.254Z,70.38
2022-10-17T19:36:01.304Z,70.46
2022-10-17T19:38:28.669Z,70.47
2022-10-17T19:40:56.250Z,70.42
2022-10-17T19:43:23.321Z,70.60
2022-10-17T19:45:55.977Z,70.47
2022-10-17T19:48:23.956Z,70.44
2022-10-17T19:50:52.411Z,70.51
2022-10-17T19:53:22.017Z,70.48
2022-10-17T19:55:49.877Z,70.54
2022-10-17T19:58:16.961Z,70.51
2022-10-17T20:00:49.944Z,70.43
2022-10-17T20:03:18.034Z,70.42
2022-10-17T20:05:45.713Z,70.49
2022-10-17T20:08:14.231Z,70.48
2022-10-17T20:10:41.984Z,70.45
2022-10-17T20:13:09.728Z,70.63
2022-10-17T20:15:37.218Z,70.68
2022-10-17T20:18:05.942Z,70.56
2022-10-17T20:20:36.734Z,70.46
2022-10-17T20:23:04.377Z,70.38
2022-10-17T20:25:33.242Z,70.23
2022-10-17T20:28:00.503Z,70.03
2022-10-17T20:30:27.851Z,69.89
2022-10-17T20:32:55.593Z,69.92
2022-10-17T20:35:22.859Z,70.04
2022-10-17T20:37:49.864Z,70.02
2022-10-17T20:40:34.106Z,69.96
2022-10-17T20:42:46.299Z,70.00
2022-10-17T20:45:14.365Z,69.93
2022-10-17T20:47:47.157Z,70.03
2022-10-17T20:50:10.545Z,70.11
2022-10-17T20:52:37.752Z,70.21
2022-10-17T20:55:05.521Z,70.36
2022-10-17T20:57:32.834Z,70.44
2022-10-17T21:00:00.454Z,70.57
2022-10-17T21:02:27.811Z,70.72
2022-10-17T21:04:55.011Z,70.77
2022-10-17T21:07:24.100Z,70.85
2022-10-17T21:09:51.306Z,70.95
2022-10-17T21:12:26.217Z,70.96
2022-10-17T21:14:47.286Z,71.06
2022-10-17T21:17:14.429Z,71.08
2022-10-17T21:19:41.791Z,71.02
2022-10-17T21:22:08.898Z,71.02
2022-10-17T21:24:36.065Z,71.00
2022-10-17T21:27:03.556Z,70.98
2022-10-17T21:29:30.617Z,71.05
2022-10-17T21:31:57.683Z,71.20
2022-10-17T21:34:25.060Z,71.26
2022-10-17T21:36:52.628Z,71.47
2022-10-17T21:39:21.147Z,71.33
2022-10-17T21:41:48.295Z,71.39
2022-10-17T21:44:17.851Z,71.29
2022-10-17T21:46:45.587Z,71.27
2022-10-17T21:49:15.411Z,71.19
2022-10-17T21:51:44.052Z,71.07
2022-10-17T21:54:13.709Z,71.31
2022-10-17T21:56:41.431Z,71.40
2022-10-17T21:59:08.788Z,71.39
2022-10-17T22:01:41.905Z,71.38
2022-10-17T22:04:15.177Z,71.32
2022-10-17T22:06:44.865Z,71.52
2022-10-17T22:09:15.731Z,71.62
2022-10-17T22:11:46.099Z,71.60
2022-10-17T22:14:15.489Z,71.66
2022-10-17T22:16:44.722Z,71.67
2022-10-17T22:19:13.358Z,71.54
2022-10-17T22:21:40.955Z,71.83
2022-10-17T22:24:10.846Z,72.00
2022-10-17T22:26:38.163Z,71.96
2022-10-17T22:29:06.874Z,71.87
2022-10-17T22:31:34.395Z,72.22
2022-10-17T22:34:02.952Z,72.60
2022-10-17T22:36:31.156Z,72.56
2022-10-17T22:38:58.203Z,72.46
2022-10-17T22:41:25.194Z,72.52
2022-10-17T22:43:52.294Z,72.53
2022-10-17T22:46:19.475Z,72.43
2022-10-17T22:48:46.561Z,72.35
2022-10-17T22:51:14.047Z,72.18
2022-10-17T22:53:41.516Z,72.12
2022-10-17T22:56:14.513Z,71.89
2022-10-17T22:58:41.933Z,71.70
2022-10-17T23:01:14.990Z,71.67
2022-10-17T23:03:42.249Z,71.57
2022-10-17T23:06:09.959Z,71.55
2022-10-17T23:08:37.454Z,71.44
2022-10-17T23:11:05.467Z,71.48
2022-10-17T23:13:32.812Z,71.50
2022-10-17T23:15:59.866Z,71.51
2022-10-17T23:18:27.270Z,71.64
2022-10-17T23:20:54.997Z,71.66
2022-10-17T23:23:22.554Z,71.70
2022-10-17T23:25:50.870Z,71.74
2022-10-17T23:28:18.295Z,71.68
2022-10-17T23:30:45.503Z,71.76
2022-10-17T23:33:13.606Z,71.71
2022-10-17T23:35:40.999Z,71.64
2022-10-17T23:38:08.706Z,71.71
2022-10-17T23:40:35.821Z,71.85
2022-10-17T23:43:04.232Z,71.92
2022-10-17T23:45:36.117Z,71.94
2022-10-17T23:48:00.693Z,72.03
2022-10-17T23:50:28.092Z,72.08
2022-10-17T23:52:55.180Z,72.11
2022-10-17T23:55:22.438Z,72.07
2022-10-17T23:57:49.715Z,72.00
